Time;durP1;ratioP1;P1;durP2;ratioP2;P2;SDS_P1;SDS_P2;PMS_P1;PMS_P2;Temp;Humidity;BMP_temperature;BMP_pressure;BME280_temperature;BME280_humidity;BME280_pressure;Samples;Min_cycle;Max_cycle;Signal;HPM_P1;HPM_P2
2022/09/20 00:01:45;;;;;;;6.05;2.42;;;10.00;21.10;;;;;;7380499;19;20029;-65
2022/09/20 00:04:18;;;;;;;4.95;2.42;;;10.00;22.10;;;;;;7363742;19;20015;-65
2022/09/20 00:06:48;;;;;;;7.32;2.70;;;10.00;21.40;;;;;;7360924;19;20014;-65
2022/09/20 00:09:17;;;;;;;7.55;2.70;;;10.00;21.80;;;;;;7363425;19;20014;-65
2022/09/20 00:11:47;;;;;;;4.70;2.60;;;10.00;22.10;;;;;;7358437;19;20868;-65
2022/09/20 00:14:17;;;;;;;4.70;3.10;;;9.90;23.40;;;;;;7362620;19;20011;-65
2022/09/20 00:16:47;;;;;;;5.97;2.75;;;9.80;22.60;;;;;;7379763;19;20391;-65
2022/09/20 00:19:22;;;;;;;6.03;2.40;;;9.80;23.20;;;;;;7361037;19;20025;-65
2022/09/20 00:21:52;;;;;;;5.15;2.35;;;9.80;22.60;;;;;;7356648;19;20015;-65
2022/09/20 00:24:21;;;;;;;11.07;2.45;;;9.80;22.60;;;;;;7362260;19;20011;-65
2022/09/20 00:26:51;;;;;;;8.00;2.60;;;9.80;22.60;;;;;;7359622;19;20501;-65
2022/09/20 00:29:21;;;;;;;8.18;2.80;;;9.70;21.30;;;;;;7361390;19;20014;-65
2022/09/20 00:31:51;;;;;;;4.40;2.13;;;9.80;21.60;;;;;;7378506;19;20025;-65
2022/09/20 00:37:06;;;;;;;;;;;9.80;20.60;;;;;;7365275;19;20038;-65
2022/09/20 00:39:35;;;;;;;6.43;2.20;;;9.90;20.60;;;;;;7368155;19;20271;-65
2022/09/20 00:42:06;;;;;;;8.15;2.20;;;9.90;21.90;;;;;;7361081;19;20015;-65
2022/09/20 00:44:49;;;;;;;6.18;2.60;;;10.00;20.50;;;;;;7368884;19;20015;-65
2022/09/20 00:47:26;;;;;;;7.25;2.45;;;10.00;20.10;;;;;;7365086;19;20379;-65
2022/09/20 00:50:03;;;;;;;8.68;2.47;;;10.00;18.90;;;;;;7389892;19;20014;-65
2022/09/20 00:52:34;;;;;;;6.35;2.28;;;10.10;18.60;;;;;;7361063;19;20019;-65
2022/09/20 00:55:07;;;;;;;6.10;2.33;;;10.00;17.70;;;;;;7365506;19;20018;-65
2022/09/20 00:57:38;;;;;;;6.80;1.80;;;10.10;17.90;;;;;;7365375;19;20014;-65
2022/09/20 01:00:13;;;;;;;3.85;2.08;;;10.10;16.70;;;;;;7368290;19;20025;-65
2022/09/20 01:02:46;;;;;;;7.85;2.53;;;10.10;16.20;;;;;;7361202;19;20057;-65
2022/09/20 01:05:20;;;;;;;6.43;2.50;;;10.10;15.60;;;;;;7369249;19;20025;-65
2022/09/20 01:07:53;;;;;;;6.63;2.40;;;10.10;16.00;;;;;;7386618;19;20450;-65
2022/09/20 01:10:23;;;;;;;4.15;2.28;;;10.20;16.30;;;;;;7367909;19;20014;-65
2022/09/20 01:12:54;;;;;;;4.43;1.90;;;10.20;15.60;;;;;;7361645;19;20006;-65
2022/09/20 01:15:26;;;;;;;6.63;2.45;;;10.20;15.90;;;;;;7367825;19;20034;-65
2022/09/20 01:17:58;;;;;;;4.70;2.40;;;10.10;15.10;;;;;;7366733;19;20470;-65
2022/09/20 01:20:33;;;;;;;6.60;3.53;;;10.20;15.20;;;;;;7368231;19;20474;-64
2022/09/20 01:23:24;;;;;;;4.78;2.10;;;10.10;14.80;;;;;;7383023;19;20018;-65
2022/09/20 01:26:16;;;;;;;10.07;2.15;;;10.10;14.00;;;;;;7368525;19;20071;-65
2022/09/20 01:28:51;;;;;;;5.82;1.92;;;10.10;15.10;;;;;;7368015;19;20019;-65
2022/09/20 01:31:27;;;;;;;8.35;2.28;;;10.10;14.30;;;;;;7367490;19;21077;-65
2022/09/20 01:34:01;;;;;;;12.05;2.40;;;10.10;14.40;;;;;;7363286;19;20018;-65
2022/09/20 01:36:39;;;;;;;5.75;1.90;;;10.10;13.70;;;;;;7365469;19;20007;-65
2022/09/20 01:39:15;;;;;;;7.78;2.15;;;10.10;12.70;;;;;;7365321;19;20423;-64
2022/09/20 01:41:50;;;;;;;5.25;1.90;;;10.10;13.30;;;;;;7364603;19;20003;-64
2022/09/20 01:44:30;;;;;;;5.50;2.10;;;10.10;13.30;;;;;;7367474;19;20019;-64
2022/09/20 01:47:07;;;;;;;5.95;1.80;;;10.10;12.70;;;;;;7384728;19;20018;-64
2022/09/20 01:49:44;;;;;;;4.80;2.00;;;10.10;12.30;;;;;;7366621;19;20026;-64
2022/09/20 01:52:46;;;;;;;3.17;1.90;;;10.10;12.80;;;;;;7359210;19;20007;-64
2022/09/20 01:55:50;;;;;;;11.93;2.30;;;10.10;12.90;;;;;;7364398;19;20015;-64
2022/09/20 01:58:45;;;;;;;4.53;1.85;;;10.10;12.00;;;;;;7364746;19;20411;-65
2022/09/20 02:01:54;;;;;;;8.50;2.20;;;10.10;11.90;;;;;;7365819;19;20017;-65
2022/09/20 02:04:59;;;;;;;6.78;1.70;;;10.10;12.40;;;;;;7366525;19;20014;-65
2022/09/20 02:07:53;;;;;;;7.90;2.13;;;10.10;12.70;;;;;;7362136;19;20007;-65
2022/09/20 02:10:39;;;;;;;4.43;1.88;;;10.10;12.80;;;;;;7366398;19;20052;-64
2022/09/20 02:13:14;;;;;;;10.30;2.60;;;10.10;13.10;;;;;;7359427;19;20034;-64
2022/09/20 02:16:17;;;;;;;6.57;2.08;;;10.10;12.60;;;;;;7364915;19;20038;-65
2022/09/20 02:19:08;;;;;;;5.97;1.95;;;10.10;13.70;;;;;;7366739;19;20009;-64
2022/09/20 02:21:46;;;;;;;9.05;2.47;;;10.10;12.60;;;;;;7363460;19;20060;-64
2022/09/20 02:24:24;;;;;;;6.78;1.88;;;10.00;12.90;;;;;;7364322;19;20014;-64
2022/09/20 02:27:09;;;;;;;5.32;1.73;;;10.00;13.10;;;;;;7363966;19;20478;-65
2022/09/20 02:29:48;;;;;;;5.75;2.03;;;10.00;12.10;;;;;;7366848;19;20010;-64
2022/09/20 02:32:36;;;;;;;6.90;2.05;;;10.00;12.20;;;;;;7358909;19;20462;-65
2022/09/20 02:35:31;;;;;;;2.80;1.55;;;10.10;11.70;;;;;;7369416;19;20015;-65
2022/09/20 02:38:20;;;;;;;4.95;2.03;;;10.00;10.60;;;;;;7385309;19;20025;-64
2022/09/20 02:41:05;;;;;;;9.00;2.35;;;10.00;11.40;;;;;;7367353;19;20018;-65
2022/09/20 02:43:42;;;;;;;6.22;2.30;;;10.00;10.90;;;;;;7357876;19;20462;-65
2022/09/20 02:46:19;;;;;;;6.47;2.45;;;10.00;12.10;;;;;;7366153;19;20345;-65
2022/09/20 02:48:56;;;;;;;7.00;2.25;;;10.00;12.00;;;;;;7364795;19;20014;-64
2022/09/20 02:51:37;;;;;;;4.47;2.03;;;9.90;12.20;;;;;;7365347;19;20010;-64
2022/09/20 02:54:18;;;;;;;6.22;1.90;;;9.90;12.10;;;;;;7361197;19;20518;-65
2022/09/20 02:56:55;;;;;;;8.95;2.35;;;9.90;12.50;;;;;;7362656;19;20010;-65
2022/09/20 02:59:33;;;;;;;7.75;2.50;;;9.80;13.40;;;;;;7365341;19;20019;-65
2022/09/20 03:02:12;;;;;;;3.42;1.80;;;9.70;14.60;;;;;;7380202;19;20015;-65
2022/09/20 03:04:55;;;;;;;6.45;2.10;;;9.70;13.30;;;;;;7365588;19;20007;-65
2022/09/20 03:07:37;;;;;;;7.55;2.13;;;9.70;14.00;;;;;;7361388;19;20495;-65
2022/09/20 03:10:18;;;;;;;8.73;2.65;;;9.70;14.50;;;;;;7364887;19;20474;-64
2022/09/20 03:13:02;;;;;;;4.03;2.10;;;9.70;14.40;;;;;;7356258;19;20030;-65
2022/09/20 03:15:40;;;;;;;5.97;1.92;;;9.70;15.50;;;;;;7365030;19;20365;-64
2022/09/20 03:18:16;;;;;;;4.82;2.13;;;9.70;15.60;;;;;;7362942;19;20048;-64
2022/09/20 03:20:59;;;;;;;6.05;2.55;;;9.70;15.60;;;;;;7365584;19;20037;-64
2022/09/20 03:23:48;;;;;;;11.82;3.03;;;9.70;15.50;;;;;;7357970;19;20490;-64
2022/09/20 03:26:31;;;;;;;4.05;2.22;;;9.60;16.20;;;;;;7364167;19;20379;-64
2022/09/20 03:29:06;;;;;;;6.40;3.00;;;9.70;15.40;;;;;;7387977;19;20010;-64
2022/09/20 03:31:45;;;;;;;6.30;2.05;;;9.70;15.50;;;;;;7366635;19;20014;-65
2022/09/20 03:34:28;;;;;;;9.50;2.53;;;9.70;15.60;;;;;;7367648;19;20040;-64
2022/09/20 03:37:17;;;;;;;4.70;2.28;;;9.70;15.50;;;;;;7363557;19;20042;-66
2022/09/20 03:40:14;;;;;;;6.40;2.72;;;9.70;14.70;;;;;;7367045;19;20014;-64
2022/09/20 03:42:49;;;;;;;13.00;2.50;;;9.70;14.90;;;;;;7368753;19;20665;-64
2022/09/20 03:45:46;;;;;;;5.50;2.40;;;9.80;14.80;;;;;;7367638;19;20508;-65
2022/09/20 03:48:36;;;;;;;5.13;2.25;;;9.80;14.50;;;;;;7365601;19;20014;-64
2022/09/20 03:51:17;;;;;;;4.38;2.13;;;9.70;14.50;;;;;;7367340;19;20038;-64
2022/09/20 03:54:13;;;;;;;4.85;2.33;;;9.70;15.00;;;;;;7367795;19;20415;-64
2022/09/20 03:57:22;;;;;;;7.75;1.98;;;9.80;14.90;;;;;;7364741;19;20505;-65
2022/09/20 04:00:06;;;;;;;7.38;1.90;;;9.80;15.60;;;;;;7364799;19;20014;-65
2022/09/20 04:02:57;;;;;;;5.35;2.30;;;9.70;15.60;;;;;;7369246;19;20052;-65
2022/09/20 04:05:35;;;;;;;7.97;2.30;;;9.70;15.50;;;;;;7367237;19;20015;-65
2022/09/20 04:08:16;;;;;;;3.53;2.03;;;9.70;15.60;;;;;;7386302;19;20015;-67
2022/09/20 04:10:59;;;;;;;5.97;2.40;;;9.70;16.10;;;;;;7388647;19;20019;-65
2022/09/20 04:13:38;;;;;;;9.93;2.72;;;9.70;17.00;;;;;;7367643;19;20010;-64
2022/09/20 04:16:28;;;;;;;7.22;2.33;;;9.70;18.80;;;;;;7365077;19;20348;-64
2022/09/20 04:19:03;;;;;;;10.50;3.42;;;9.60;19.50;;;;;;7367665;19;20007;-64
2022/09/20 04:21:35;;;;;;;;;;;9.60;21.70;;;;;;7367427;19;20018;-65
2022/09/20 04:24:12;;;;;;;5.65;2.40;;;9.50;21.50;;;;;;7365564;19;19923;-65
2022/09/20 04:26:48;;;;;;;7.95;3.17;;;9.50;23.00;;;;;;7363202;19;20091;-65
2022/09/20 04:29:32;;;;;;;20.98;2.30;;;9.50;22.40;;;;;;7365721;19;20037;-65
2022/09/20 04:32:13;;;;;;;7.20;2.25;;;9.50;22.50;;;;;;7389079;19;20046;-65
2022/09/20 04:37:34;;;;;;;7.45;2.90;;;9.50;22.40;;;;;;7361884;19;20025;-64
2022/09/20 04:40:21;;;;;;;6.40;2.55;;;9.50;22.40;;;;;;7366038;19;20006;-66
2022/09/20 04:43:24;;;;;;;9.23;2.85;;;9.40;22.40;;;;;;7366289;19;20494;-65
2022/09/20 04:46:32;;;;;;;5.15;2.45;;;9.50;24.20;;;;;;7365595;19;20014;-64
2022/09/20 04:49:38;;;;;;;6.90;2.50;;;9.50;24.20;;;;;;7364180;19;20018;-64
2022/09/20 04:52:35;;;;;;;;;;;9.40;23.20;;;;;;7366706;19;20011;-64
2022/09/20 04:55:56;;;;;;;7.88;3.38;;;9.30;24.00;;;;;;7362648;19;19922;-65
2022/09/20 04:58:41;;;;;;;8.38;2.95;;;9.30;24.40;;;;;;7362534;19;20050;-65
2022/09/20 05:01:54;;;;;;;6.47;2.65;;;9.20;24.40;;;;;;7364882;19;20502;-64
2022/09/20 05:04:57;;;;;;;7.93;2.90;;;9.20;25.00;;;;;;7363222;19;20467;-64
2022/09/20 05:08:03;;;;;;;5.50;2.75;;;9.10;24.40;;;;;;7360500;19;20022;-65
2022/09/20 05:10:45;;;;;;;;;;;9.10;25.00;;;;;;7365960;19;20034;-65
2022/09/20 05:13:27;;;;;;;6.95;2.95;;;9.10;25.70;;;;;;7364612;19;20296;-64
2022/09/20 05:16:04;;;;;;;5.07;2.67;;;9.00;25.60;;;;;;7363209;19;20018;-64
2022/09/20 05:19:08;;;;;;;5.97;2.80;;;9.00;25.60;;;;;;7362770;19;20451;-65
2022/09/20 05:21:59;;;;;;;9.50;3.15;;;9.00;25.20;;;;;;7369810;19;20019;-66
2022/09/20 05:24:44;;;;;;;8.48;2.80;;;9.00;25.10;;;;;;7369886;19;20118;-65
2022/09/20 05:27:28;;;;;;;6.45;3.13;;;9.00;24.40;;;;;;7367594;19;20058;-65
2022/09/20 05:30:06;;;;;;;7.83;2.80;;;9.10;24.30;;;;;;7371810;19;20014;-64
2022/09/20 05:32:47;;;;;;;13.85;3.67;;;9.10;24.40;;;;;;7371605;19;20205;-65
2022/09/20 05:35:25;;;;;;;7.63;3.17;;;9.20;25.20;;;;;;7372039;19;20391;-64
2022/09/20 05:38:05;;;;;;;7.38;3.00;;;9.20;24.20;;;;;;7388719;19;20018;-65
2022/09/20 05:40:40;;;;;;;12.75;2.85;;;9.20;24.30;;;;;;7370743;19;20011;-65
2022/09/20 05:43:12;;;;;;;9.95;2.83;;;9.20;23.80;;;;;;7370112;19;20010;-66
2022/09/20 05:46:00;;;;;;;6.47;2.50;;;9.20;23.80;;;;;;7370976;19;20010;-65
2022/09/20 05:48:41;;;;;;;8.18;2.95;;;9.20;24.10;;;;;;7368301;19;20010;-65
2022/09/20 05:51:22;;;;;;;7.32;2.90;;;9.20;23.70;;;;;;7370045;19;20006;-64
2022/09/20 05:54:10;;;;;;;9.15;3.33;;;9.30;24.20;;;;;;7369675;19;20042;-63
2022/09/20 05:56:49;;;;;;;8.43;2.95;;;9.20;23.10;;;;;;7367849;19;20014;-64
2022/09/20 05:59:30;;;;;;;11.68;3.38;;;9.20;22.80;;;;;;7370424;19;20025;-64
2022/09/20 06:02:12;;;;;;;6.60;2.90;;;9.20;23.80;;;;;;7393802;19;20710;-65
2022/09/20 06:04:55;;;;;;;6.15;3.00;;;9.10;23.70;;;;;;7370377;19;20479;-65
2022/09/20 06:07:38;;;;;;;10.35;3.45;;;9.30;24.40;;;;;;7366961;19;20375;-65
2022/09/20 06:10:29;;;;;;;9.35;3.35;;;9.20;24.40;;;;;;7367772;19;20041;-64
2022/09/20 06:13:10;;;;;;;8.27;3.15;;;9.40;24.00;;;;;;7368908;19;20035;-65
2022/09/20 06:15:49;;;;;;;10.85;3.58;;;9.60;24.00;;;;;;7369516;19;20018;-65
2022/09/20 06:18:25;;;;;;;9.82;2.85;;;9.50;22.40;;;;;;7368339;19;20007;-65
2022/09/20 06:21:07;;;;;;;5.18;3.20;;;9.60;21.90;;;;;;7367587;19;20085;-65
2022/09/20 06:23:37;;;;;;;12.65;3.10;;;9.70;22.60;;;;;;7371299;19;20029;-65
2022/09/20 06:26:12;;;;;;;9.38;3.35;;;9.90;21.90;;;;;;7373685;19;20030;-65
2022/09/20 06:28:46;;;;;;;13.45;3.25;;;10.00;18.50;;;;;;7390883;19;20006;-65
2022/09/20 06:31:16;;;;;;;9.43;2.92;;;10.10;18.40;;;;;;7367072;19;20347;-65
2022/09/20 06:33:50;;;;;;;8.20;2.88;;;10.20;16.40;;;;;;7367474;19;20014;-65
2022/09/20 06:41:57;;;;;;;7.40;3.55;;;10.40;15.30;;;;;;7368773;19;20374;-65
2022/09/20 06:44:27;;;;;;;7.85;3.50;;;10.50;15.90;;;;;;7369922;19;20472;-64
2022/09/20 06:46:57;;;;;;;5.75;3.10;;;10.30;15.20;;;;;;7387537;19;20022;-64
2022/09/20 06:49:28;;;;;;;10.52;3.95;;;10.40;16.30;;;;;;7369134;19;20015;-64
2022/09/20 06:52:00;;;;;;;8.73;3.20;;;10.50;15.30;;;;;;7368062;19;20007;-64
2022/09/20 06:54:30;;;;;;;6.85;3.13;;;10.70;14.10;;;;;;7368760;19;20010;-65
2022/09/20 06:57:04;;;;;;;8.20;3.25;;;10.70;13.50;;;;;;7364624;19;20011;-65
2022/09/20 06:59:34;;;;;;;10.40;3.17;;;10.90;13.60;;;;;;7369281;19;20027;-65
2022/09/20 07:02:04;;;;;;;8.50;4.10;;;10.90;11.90;;;;;;7391111;19;20018;-65
2022/09/20 07:04:34;;;;;;;10.55;4.43;;;10.90;11.10;;;;;;7368890;19;20086;-65
2022/09/20 07:07:08;;;;;;;8.95;3.58;;;10.90;11.70;;;;;;7363607;19;20443;-65
2022/09/20 07:09:38;;;;;;;7.32;2.88;;;11.00;10.30;;;;;;7369266;19;20356;-64
2022/09/20 07:12:11;;;;;;;9.30;3.78;;;10.90;13.80;;;;;;7368468;19;20015;-64
2022/09/20 07:14:41;;;;;;;5.13;3.50;;;10.90;12.10;;;;;;7369050;19;20014;-65
2022/09/20 07:17:12;;;;;;;9.18;3.30;;;10.70;13.30;;;;;;7363546;19;20029;-64
2022/09/20 07:19:41;;;;;;;9.05;3.63;;;10.80;14.00;;;;;;7390017;19;20007;-64
2022/09/20 07:22:14;;;;;;;7.55;3.05;;;10.90;12.40;;;;;;7366237;19;20011;-65
2022/09/20 07:24:44;;;;;;;10.95;3.60;;;11.10;13.30;;;;;;7367716;19;20015;-65
2022/09/20 07:27:14;;;;;;;10.00;3.75;;;11.20;10.50;;;;;;7362201;19;20034;-65
2022/09/20 07:29:44;;;;;;;8.98;3.40;;;11.10;11.40;;;;;;7361135;19;20063;-65
2022/09/20 07:32:16;;;;;;;9.73;3.47;;;11.10;11.30;;;;;;7362403;19;20014;-66
2022/09/20 07:34:45;;;;;;;11.07;3.75;;;11.00;11.00;;;;;;7387112;19;20018;-65
2022/09/20 07:37:18;;;;;;;13.95;4.13;;;11.20;11.20;;;;;;7360234;19;20017;-66
2022/09/20 07:39:48;;;;;;;12.35;4.68;;;11.40;10.80;;;;;;7362285;19;20006;-65
2022/09/20 07:42:19;;;;;;;8.57;3.55;;;11.50;8.90;;;;;;7366093;19;20089;-65
2022/09/20 07:44:49;;;;;;;8.50;4.03;;;11.40;8.20;;;;;;7365579;19;20352;-65
2022/09/20 07:47:20;;;;;;;7.57;3.30;;;11.50;8.20;;;;;;7357072;19;20042;-65
2022/09/20 07:49:50;;;;;;;10.35;3.63;;;11.70;7.20;;;;;;7378116;19;20355;-66
2022/09/20 07:52:22;;;;;;;8.15;3.60;;;11.80;5.70;;;;;;7361208;19;20090;-65
2022/09/20 07:54:52;;;;;;;6.63;3.58;;;12.00;4.50;;;;;;7362394;19;20099;-65
2022/09/20 07:57:22;;;;;;;10.48;3.63;;;11.80;3.00;;;;;;7357885;19;20015;-66
2022/09/20 07:59:52;;;;;;;9.75;3.35;;;11.90;5.30;;;;;;7358678;19;20019;-65
2022/09/20 08:02:21;;;;;;;8.25;3.03;;;12.10;4.30;;;;;;7363142;19;20042;-65
2022/09/20 08:04:51;;;;;;;11.68;3.60;;;12.40;1.40;;;;;;7385405;19;20038;-65
2022/09/20 08:07:24;;;;;;;7.93;2.67;;;12.30;1.00;;;;;;7359988;19;20030;-65
2022/09/20 08:09:53;;;;;;;8.50;2.25;;;11.90;1.00;;;;;;7358674;19;21384;-65
2022/09/20 08:12:23;;;;;;;7.18;2.30;;;11.80;1.00;;;;;;7362988;19;20010;-65
2022/09/20 08:15:13;;;;;;;12.48;2.92;;;12.20;1.00;;;;;;7364473;19;20002;-65
2022/09/20 08:17:43;;;;;;;5.80;2.08;;;12.50;1.00;;;;;;7359593;19;20015;-65
2022/09/20 08:20:13;;;;;;;5.32;2.22;;;12.70;1.00;;;;;;7357550;19;20022;-66
2022/09/20 08:22:45;;;;;;;5.30;2.90;;;12.40;1.00;;;;;;7386320;19;20038;-65
2022/09/20 08:25:35;;;;;;;9.10;2.90;;;12.80;1.00;;;;;;7364962;19;20010;-65
2022/09/20 08:28:04;;;;;;;8.90;2.67;;;13.20;1.00;;;;;;7359740;19;20007;-65
2022/09/20 08:30:34;;;;;;;6.28;2.33;;;13.20;1.00;;;;;;7357113;19;20018;-66
2022/09/20 08:33:06;;;;;;;6.97;2.80;;;13.00;1.00;;;;;;7363276;19;20451;-65
2022/09/20 08:35:37;;;;;;;14.45;2.80;;;12.50;1.00;;;;;;7362739;19;20014;-66
2022/09/20 08:38:10;;;;;;;7.95;2.28;;;12.80;1.00;;;;;;7381572;19;20110;-68
2022/09/20 08:41:06;;;;;;;7.55;2.20;;;13.20;1.00;;;;;;7379092;19;20382;-66
2022/09/20 08:43:39;;;;;;;7.20;2.03;;;12.90;1.00;;;;;;7361028;19;20017;-65
2022/09/20 08:46:18;;;;;;;10.15;2.42;;;12.40;1.00;;;;;;7360677;19;20015;-65
2022/09/20 08:48:53;;;;;;;6.30;1.67;;;12.30;1.00;;;;;;7362764;19;20490;-65
2022/09/20 08:51:27;;;;;;;13.95;1.85;;;12.60;1.00;;;;;;7357749;19;20014;-65
2022/09/20 08:54:00;;;;;;;7.20;2.50;;;12.90;1.00;;;;;;7362352;19;20013;-65
2022/09/20 08:56:35;;;;;;;8.15;1.85;;;13.30;1.00;;;;;;7362715;19;20486;-64
2022/09/20 08:59:05;;;;;;;6.15;1.83;;;13.50;1.00;;;;;;7390837;19;20026;-66
2022/09/20 09:01:35;;;;;;;8.50;1.80;;;13.10;1.00;;;;;;7364330;19;20015;-67
2022/09/20 09:04:15;;;;;;;6.13;1.60;;;13.00;1.00;;;;;;7369496;19;20031;-66
2022/09/20 09:06:46;;;;;;;10.80;2.05;;;13.10;1.00;;;;;;7365013;19;20037;-65
2022/09/20 09:09:22;;;;;;;6.63;1.90;;;12.80;1.00;;;;;;7367661;19;20498;-66
2022/09/20 09:11:53;;;;;;;3.97;1.95;;;12.90;1.00;;;;;;7363301;19;20373;-65
2022/09/20 09:17:12;;;;;;;8.98;1.75;;;12.90;1.00;;;;;;7365468;19;20022;-65
2022/09/20 09:19:47;;;;;;;4.68;1.67;;;12.90;1.00;;;;;;7383240;19;20007;-66
2022/09/20 09:22:25;;;;;;;4.45;1.88;;;13.00;1.00;;;;;;7369291;19;20018;-66
2022/09/20 09:25:24;;;;;;;7.13;1.58;;;13.00;1.00;;;;;;7365306;19;20010;-66
2022/09/20 09:27:57;;;;;;;8.57;1.88;;;13.00;1.00;;;;;;7362851;19;20014;-65
2022/09/20 09:30:30;;;;;;;9.65;1.65;;;12.80;1.00;;;;;;7366672;19;20094;-66
2022/09/20 09:33:25;;;;;;;4.85;1.70;;;12.80;1.00;;;;;;7366608;19;20525;-65
2022/09/20 09:35:58;;;;;;;4.15;1.50;;;12.80;1.00;;;;;;7364262;19;20014;-65
2022/09/20 09:38:30;;;;;;;6.57;1.80;;;13.00;1.00;;;;;;7367172;19;20024;-65
2022/09/20 09:41:04;;;;;;;3.92;1.50;;;13.20;1.00;;;;;;7390019;19;20375;-65
2022/09/20 09:43:39;;;;;;;4.53;1.23;;;13.40;1.00;;;;;;7369312;19;20474;-65
2022/09/20 09:46:20;;;;;;;6.25;2.15;;;13.30;1.00;;;;;;7367167;19;20037;-65
2022/09/20 09:49:06;;;;;;;4.22;1.33;;;13.40;1.00;;;;;;7372586;19;20038;-65
2022/09/20 09:51:42;;;;;;;9.88;1.70;;;13.70;1.00;;;;;;7371317;19;20018;-65
2022/09/20 09:54:18;;;;;;;7.60;1.50;;;13.90;1.00;;;;;;7371514;19;20037;-66
2022/09/20 09:57:01;;;;;;;8.68;1.40;;;14.30;1.00;;;;;;7368119;19;20007;-67
2022/09/20 09:59:56;;;;;;;4.90;1.27;;;14.30;1.00;;;;;;7370922;19;20643;-66
2022/09/20 10:02:49;;;;;;;6.15;1.50;;;14.40;1.00;;;;;;7371831;19;20486;-66
2022/09/20 10:05:25;;;;;;;4.93;1.40;;;14.10;1.00;;;;;;7369347;19;21473;-66
2022/09/20 10:08:04;;;;;;;4.90;1.33;;;13.80;1.00;;;;;;7387786;19;20487;-65
2022/09/20 10:10:44;;;;;;;4.72;1.40;;;13.90;1.00;;;;;;7371603;19;20018;-66
2022/09/20 10:13:25;;;;;;;7.20;1.58;;;13.80;1.00;;;;;;7370773;19;20010;-65
2022/09/20 10:16:01;;;;;;;7.30;2.20;;;13.80;1.00;;;;;;7369777;19;20019;-66
2022/09/20 10:18:40;;;;;;;5.45;1.52;;;13.60;1.00;;;;;;7370455;19;20021;-65
2022/09/20 10:21:20;;;;;;;7.32;2.05;;;13.50;1.00;;;;;;7368488;19;20490;-65
2022/09/20 10:24:09;;;;;;;9.52;1.65;;;13.50;1.00;;;;;;7370699;19;20014;-65
2022/09/20 10:27:07;;;;;;;4.28;1.50;;;13.60;1.00;;;;;;7366624;19;20043;-66
2022/09/20 10:29:56;;;;;;;11.75;1.90;;;13.90;1.00;;;;;;7368585;19;20501;-64
2022/09/20 10:32:42;;;;;;;5.47;1.20;;;13.70;1.00;;;;;;7369095;19;20530;-65
2022/09/20 10:35:24;;;;;;;5.03;1.65;;;14.10;1.00;;;;;;7370146;19;20021;-66
2022/09/20 10:38:18;;;;;;;6.30;1.00;;;14.30;1.00;;;;;;7387434;19;20014;-66
2022/09/20 10:44:06;;;;;;;3.58;1.50;;;14.50;1.00;;;;;;7370461;19;20010;-65
2022/09/20 10:46:50;;;;;;;3.92;1.50;;;14.60;1.00;;;;;;7365797;19;20017;-66
2022/09/20 10:49:28;;;;;;;6.15;1.67;;;14.30;1.00;;;;;;7369881;19;20510;-67
2022/09/20 10:52:27;;;;;;;6.25;1.60;;;14.10;1.00;;;;;;7369912;19;20787;-66
2022/09/20 10:55:10;;;;;;;5.13;1.63;;;14.00;1.00;;;;;;7368367;19;20018;-66
2022/09/20 10:57:55;;;;;;;7.68;1.60;;;14.00;1.00;;;;;;7367214;19;20014;-65
2022/09/20 11:00:31;;;;;;;3.63;1.70;;;14.70;1.00;;;;;;7366436;19;20375;-66
2022/09/20 11:03:17;;;;;;;6.07;1.85;;;14.90;1.00;;;;;;7369001;19;20029;-65
2022/09/20 11:06:00;;;;;;;6.10;2.28;;;14.50;1.00;;;;;;7367703;19;20011;-64
2022/09/20 11:08:35;;;;;;;4.57;1.50;;;14.50;1.00;;;;;;7368268;19;20020;-65
2022/09/20 11:11:11;;;;;;;5.97;1.35;;;14.70;1.00;;;;;;7389481;19;20058;-65
2022/09/20 11:13:48;;;;;;;5.88;1.50;;;14.50;1.00;;;;;;7369701;19;20006;-66
2022/09/20 11:16:22;;;;;;;8.18;1.80;;;14.70;1.00;;;;;;7366993;19;20006;-65
2022/09/20 11:19:00;;;;;;;4.05;1.70;;;14.40;1.00;;;;;;7366469;19;20018;-65
2022/09/20 11:21:36;;;;;;;9.05;2.00;;;14.80;1.00;;;;;;7368000;19;20014;-65
2022/09/20 11:24:15;;;;;;;5.80;1.80;;;15.00;1.00;;;;;;7369251;19;20018;-65
2022/09/20 11:26:51;;;;;;;4.80;1.58;;;14.90;1.00;;;;;;7366510;19;20533;-65
2022/09/20 11:29:26;;;;;;;6.78;1.90;;;15.00;1.00;;;;;;7369160;19;20488;-65
2022/09/20 11:32:04;;;;;;;5.53;1.80;;;14.40;1.00;;;;;;7391713;19;20014;-65
2022/09/20 11:34:44;;;;;;;6.13;2.03;;;14.20;1.00;;;;;;7368324;19;20014;-64
2022/09/20 11:37:14;;;;;;;7.70;2.17;;;14.20;1.00;;;;;;7364205;19;20006;-65
2022/09/20 11:39:48;;;;;;;5.30;1.88;;;14.40;1.00;;;;;;7367377;19;20026;-65
2022/09/20 11:42:22;;;;;;;5.55;2.05;;;14.50;1.00;;;;;;7368604;19;20406;-65
2022/09/20 11:44:52;;;;;;;7.75;1.98;;;14.20;1.00;;;;;;7368896;19;20010;-65
2022/09/20 11:47:27;;;;;;;8.20;1.80;;;14.30;1.00;;;;;;7365024;19;20688;-65
2022/09/20 11:51:04;;;;;;;9.00;1.60;;;14.10;1.00;;;;;;7367354;19;20037;-64
2022/09/20 11:53:53;;;;;;;8.18;2.33;;;14.40;1.00;;;;;;7365235;19;20049;-66
2022/09/20 11:56:25;;;;;;;3.83;1.80;;;14.00;1.00;;;;;;7363144;19;20014;-65
2022/09/20 11:58:59;;;;;;;5.18;1.73;;;14.40;1.00;;;;;;7389195;19;20375;-65
2022/09/20 12:01:31;;;;;;;8.20;1.98;;;14.70;1.00;;;;;;7364913;19;20509;-65
2022/09/20 12:04:06;;;;;;;5.07;2.13;;;15.10;1.00;;;;;;7366223;19;20379;-65
2022/09/20 12:07:01;;;;;;;8.77;3.08;;;14.90;1.00;;;;;;7364268;19;20470;-66
2022/09/20 12:09:44;;;;;;;6.93;1.85;;;15.10;1.00;;;;;;7367772;19;20406;-66
2022/09/20 12:12:26;;;;;;;4.60;1.70;;;14.80;1.00;;;;;;7367816;19;20003;-66
2022/09/20 12:14:57;;;;;;;4.70;1.77;;;14.70;1.00;;;;;;7368761;19;20015;-65
2022/09/20 12:18:12;;;;;;;6.63;1.63;;;15.20;1.00;;;;;;7363459;19;20086;-65
2022/09/20 12:21:15;;;;;;;4.20;1.30;;;15.70;1.00;;;;;;7365604;19;20086;-65
2022/09/20 12:24:10;;;;;;;6.30;1.80;;;15.90;1.00;;;;;;7366304;19;20011;-65
2022/09/20 12:26:45;;;;;;;5.20;2.10;;;15.40;1.00;;;;;;7363405;19;20470;-66
2022/09/20 12:29:56;;;;;;;6.90;1.60;;;15.10;1.00;;;;;;7367090;19;20026;-65
2022/09/20 12:33:01;;;;;;;6.20;1.20;;;15.10;1.00;;;;;;7374243;19;20493;-66
2022/09/20 12:36:01;;;;;;;4.35;1.10;;;15.50;1.00;;;;;;7373599;19;20467;-66
2022/09/20 12:38:40;;;;;;;4.95;1.50;;;15.60;1.00;;;;;;7373761;19;20004;-65
2022/09/20 12:41:16;;;;;;;5.18;1.50;;;16.10;1.00;;;;;;7386102;19;20010;-65
2022/09/20 12:44:03;;;;;;;5.30;1.60;;;16.00;1.00;;;;;;7396837;19;20506;-65
2022/09/20 12:46:45;;;;;;;3.72;1.38;;;15.90;1.00;;;;;;7370705;19;20521;-65
2022/09/20 12:52:52;;;;;;;9.95;2.10;;;15.20;1.00;;;;;;7371663;19;20011;-65
2022/09/20 12:55:44;;;;;;;4.03;1.42;;;15.10;1.00;;;;;;7372584;19;20021;-64
2022/09/20 12:58:27;;;;;;;8.80;2.38;;;14.70;1.00;;;;;;7371794;19;20024;-64
2022/09/20 13:01:27;;;;;;;6.32;2.25;;;14.60;1.00;;;;;;7371192;19;20007;-65
2022/09/20 13:04:35;;;;;;;5.88;1.75;;;14.60;1.00;;;;;;7373118;19;20383;-64
2022/09/20 13:07:36;;;;;;;7.65;2.05;;;14.20;1.00;;;;;;7369123;19;20776;-65
2022/09/20 13:10:29;;;;;;;5.28;1.83;;;14.30;1.00;;;;;;7373126;19;20018;-67
2022/09/20 13:13:12;;;;;;;3.35;1.60;;;14.20;1.00;;;;;;7373244;19;20014;-65
2022/09/20 13:15:42;;;;;;;3.95;1.52;;;14.20;1.00;;;;;;7371644;19;20010;-65
2022/09/20 13:18:15;;;;;;;2.08;1.17;;;14.20;1.00;;;;;;7372345;19;20010;-64
2022/09/20 13:20:50;;;;;;;5.95;1.98;;;14.20;1.00;;;;;;7370861;19;20034;-65
2022/09/20 13:23:22;;;;;;;;;;;14.30;1.00;;;;;;7373267;19;20018;-65
2022/09/20 13:25:52;;;;;;;3.78;1.65;;;14.30;1.00;;;;;;7393067;19;19918;-66
2022/09/20 13:28:34;;;;;;;3.33;1.70;;;14.40;1.00;;;;;;7371436;19;20014;-66
2022/09/20 13:31:24;;;;;;;5.72;1.95;;;14.50;1.00;;;;;;7372091;19;20010;-65
2022/09/20 13:33:54;;;;;;;3.95;1.40;;;14.70;1.00;;;;;;7373514;19;20010;-65
2022/09/20 13:36:32;;;;;;;5.22;2.00;;;14.60;1.00;;;;;;7368938;19;20013;-65
2022/09/20 13:39:02;;;;;;;4.68;1.73;;;14.90;1.00;;;;;;7371561;19;20010;-65
2022/09/20 13:41:34;;;;;;;4.15;1.70;;;15.00;1.00;;;;;;7369720;19;20090;-65
2022/09/20 13:44:04;;;;;;;5.88;2.03;;;15.00;1.00;;;;;;7394207;19;20015;-65
2022/09/20 13:46:35;;;;;;;7.63;1.98;;;15.00;1.00;;;;;;7367856;19;20443;-64
2022/09/20 13:49:22;;;;;;;6.60;2.38;;;14.70;1.00;;;;;;7369822;19;20077;-65
2022/09/20 13:51:54;;;;;;;6.63;2.63;;;14.60;1.00;;;;;;7370003;19;20051;-66
2022/09/20 13:54:29;;;;;;;4.15;1.70;;;14.60;1.00;;;;;;7371920;19;20014;-65
2022/09/20 13:57:02;;;;;;;7.75;1.95;;;14.40;1.00;;;;;;7368755;19;20021;-64
2022/09/20 13:59:36;;;;;;;8.70;1.95;;;14.00;1.00;;;;;;7370836;19;20467;-65
2022/09/20 14:02:06;;;;;;;6.45;1.88;;;13.90;1.00;;;;;;7392271;19;20015;-65
2022/09/20 14:04:36;;;;;;;5.13;2.03;;;13.70;1.00;;;;;;7372164;19;20082;-66
2022/09/20 14:07:11;;;;;;;12.20;2.15;;;13.70;1.00;;;;;;7367189;19;20015;-65
2022/09/20 14:09:41;;;;;;;2.55;1.73;;;13.50;1.00;;;;;;7370159;19;20011;-66
2022/09/20 14:12:14;;;;;;;8.63;2.25;;;13.40;1.00;;;;;;7372108;19;20014;-66
2022/09/20 14:14:45;;;;;;;6.63;1.80;;;13.60;1.00;;;;;;7371952;19;20035;-65
2022/09/20 14:17:19;;;;;;;4.00;1.63;;;13.50;1.00;;;;;;7367223;19;20010;-66
2022/09/20 14:19:50;;;;;;;;;;;13.50;1.00;;;;;;7393340;19;20014;-65
2022/09/20 14:22:27;;;;;;;8.85;2.03;;;13.50;1.00;;;;;;7369440;19;20345;-66